createdAt,value
2018-08-28T00:00:43.503Z,12.65
2018-08-28T00:01:42.781Z,12.75
2018-08-28T00:02:42.789Z,12.78
2018-08-28T00:03:43.180Z,12.78
2018-08-28T00:04:43.282Z,12.73
2018-08-28T00:05:43.527Z,12.70
2018-08-28T00:06:43.206Z,12.75
2018-08-28T00:07:42.742Z,12.83
2018-08-28T00:08:43.016Z,12.80
2018-08-28T00:09:42.972Z,12.84
2018-08-28T00:10:42.650Z,12.87
2018-08-28T00:11:42.698Z,12.91
2018-08-28T00:12:42.787Z,13.01
2018-08-28T00:13:42.932Z,12.99
2018-08-28T00:14:42.593Z,13.06
2018-08-28T00:15:42.582Z,13.01
2018-08-28T00:16:43.203Z,13.01
2018-08-28T00:17:42.551Z,13.02
2018-08-28T00:18:42.861Z,13.05
2018-08-28T00:19:42.726Z,13.02
2018-08-28T00:20:42.569Z,13.05
2018-08-28T00:21:42.680Z,13.03
2018-08-28T00:22:43.186Z,13.05
2018-08-28T00:23:42.762Z,13.02
2018-08-28T00:24:42.803Z,13.05
2018-08-28T00:25:42.825Z,13.02
2018-08-28T00:26:42.516Z,13.02
2018-08-28T00:27:42.875Z,12.95
2018-08-28T00:28:42.782Z,12.95
2018-08-28T00:29:42.713Z,13.01
2018-08-28T00:30:42.434Z,12.83
2018-08-28T00:31:42.527Z,12.99
2018-08-28T00:32:42.795Z,12.95
2018-08-28T00:33:42.880Z,12.93
2018-08-28T00:34:42.813Z,13.02
2018-08-28T00:35:42.835Z,13.02
2018-08-28T00:36:42.682Z,12.94
2018-08-28T00:37:42.624Z,13.01
2018-08-28T00:38:42.486Z,12.91
2018-08-28T00:39:42.867Z,12.98
2018-08-28T00:40:42.335Z,12.98
2018-08-28T00:41:42.627Z,12.90
2018-08-28T00:42:42.512Z,12.93
2018-08-28T00:43:42.368Z,12.98
2018-08-28T00:44:42.563Z,12.98
2018-08-28T00:45:42.799Z,12.94
2018-08-28T00:46:42.243Z,13.02
2018-08-28T00:47:42.817Z,13.06
2018-08-28T00:48:42.471Z,12.98
2018-08-28T00:49:42.325Z,12.94
2018-08-28T00:50:42.310Z,13.02
2018-08-28T00:51:42.251Z,13.01
2018-08-28T00:52:42.291Z,13.08
2018-08-28T00:53:42.533Z,13.03
2018-08-28T00:54:42.207Z,13.05
2018-08-28T00:55:42.285Z,13.03
2018-08-28T00:56:42.235Z,13.02
2018-08-28T00:57:42.279Z,13.03
2018-08-28T00:58:42.191Z,13.01
2018-08-28T00:59:42.269Z,13.02
2018-08-28T01:00:42.186Z,13.06
2018-08-28T01:01:42.117Z,13.03
2018-08-28T01:02:42.130Z,13.03
2018-08-28T01:03:42.041Z,13.02
2018-08-28T01:04:42.151Z,13.01
2018-08-28T01:05:42.070Z,13.02
2018-08-28T01:06:42.049Z,13.03
2018-08-28T01:07:42.021Z,13.01
2018-08-28T01:08:42.042Z,13.03
2018-08-28T01:09:42.008Z,12.93
2018-08-28T01:10:41.980Z,12.99
2018-08-28T01:11:41.981Z,12.98
2018-08-28T01:12:41.948Z,12.99
2018-08-28T01:13:42.054Z,13.03
2018-08-28T01:14:41.948Z,12.99
2018-08-28T01:15:41.935Z,13.05
2018-08-28T01:16:41.891Z,12.98
2018-08-28T01:17:41.912Z,13.06
2018-08-28T01:18:41.935Z,13.05
2018-08-28T01:19:42.307Z,13.06
2018-08-28T01:20:41.877Z,13.09
2018-08-28T01:21:41.844Z,13.21
2018-08-28T01:22:41.835Z,13.16
2018-08-28T01:23:41.849Z,13.24
2018-08-28T01:24:41.875Z,13.23
2018-08-28T01:25:41.813Z,13.28
2018-08-28T01:26:42.838Z,13.28
2018-08-28T01:27:41.817Z,13.28
2018-08-28T01:28:41.777Z,13.30
2018-08-28T01:29:41.847Z,13.39
2018-08-28T01:30:41.761Z,13.37
2018-08-28T01:31:41.735Z,13.49
2018-08-28T01:32:41.749Z,13.39
2018-08-28T01:33:41.707Z,13.45
2018-08-28T01:34:41.757Z,13.55
2018-08-28T01:35:41.708Z,13.50
2018-08-28T01:36:41.674Z,13.57
2018-08-28T01:37:41.701Z,13.58
2018-08-28T01:38:41.663Z,13.61
2018-08-28T01:39:41.676Z,13.61
2018-08-28T01:40:41.696Z,13.65
2018-08-28T01:41:41.656Z,13.58
2018-08-28T01:42:41.621Z,13.67
2018-08-28T01:43:41.740Z,13.68
2018-08-28T01:44:41.659Z,13.65
2018-08-28T01:45:41.731Z,13.67
2018-08-28T01:46:41.716Z,13.76
2018-08-28T01:47:41.678Z,13.67
2018-08-28T01:48:41.596Z,13.76
2018-08-28T01:49:41.632Z,13.73
2018-08-28T01:50:41.629Z,13.70
2018-08-28T01:51:41.577Z,13.67
2018-08-28T01:52:41.508Z,13.68
2018-08-28T01:53:41.577Z,13.82
2018-08-28T01:54:41.493Z,13.82
2018-08-28T01:55:41.528Z,13.82
2018-08-28T01:56:41.488Z,13.73
2018-08-28T01:57:41.452Z,13.73
2018-08-28T01:58:41.445Z,13.71
2018-08-28T01:59:41.415Z,13.73
2018-08-28T02:00:41.481Z,13.79
2018-08-28T02:01:41.492Z,13.71
2018-08-28T02:02:41.383Z,13.68
2018-08-28T02:03:41.362Z,13.71
2018-08-28T02:04:42.368Z,13.68
2018-08-28T02:05:41.416Z,13.68
2018-08-28T02:06:41.334Z,13.67
2018-08-28T02:07:41.357Z,13.67
2018-08-28T02:08:41.349Z,13.70
2018-08-28T02:09:41.341Z,13.71
2018-08-28T02:10:41.365Z,13.71
2018-08-28T02:11:41.321Z,13.64
2018-08-28T02:12:41.279Z,13.57
2018-08-28T02:13:41.285Z,13.57
2018-08-28T02:14:41.261Z,13.57
2018-08-28T02:15:41.323Z,13.58
2018-08-28T02:16:41.781Z,13.52
2018-08-28T02:17:41.234Z,13.47
2018-08-28T02:18:41.245Z,13.54
2018-08-28T02:19:41.753Z,13.52
2018-08-28T02:20:41.251Z,13.47
2018-08-28T02:21:41.235Z,13.45
2018-08-28T02:22:41.188Z,13.40
2018-08-28T02:23:41.174Z,13.39
2018-08-28T02:24:41.148Z,13.37
2018-08-28T02:25:41.173Z,13.36
2018-08-28T02:26:41.130Z,13.33
2018-08-28T02:27:41.105Z,13.30
2018-08-28T02:28:41.099Z,13.37
2018-08-28T02:29:41.145Z,13.36
2018-08-28T02:30:41.100Z,13.37
2018-08-28T02:31:41.070Z,13.40
2018-08-28T02:32:41.061Z,13.43
2018-08-28T02:33:41.161Z,13.46
2018-08-28T02:34:41.067Z,13.45
2018-08-28T02:35:41.037Z,13.43
2018-08-28T02:36:41.029Z,13.54
2018-08-28T02:37:41.043Z,13.46
2018-08-28T02:38:40.990Z,13.52
2018-08-28T02:39:41.028Z,13.46
2018-08-28T02:40:40.990Z,13.52
2018-08-28T02:41:40.956Z,13.49
2018-08-28T02:42:40.940Z,13.54
2018-08-28T02:43:40.914Z,13.54
2018-08-28T02:44:40.919Z,13.54
2018-08-28T02:45:40.958Z,13.47
2018-08-28T02:46:40.929Z,13.54
2018-08-28T02:47:40.905Z,13.54
2018-08-28T02:48:40.918Z,13.55
2018-08-28T02:49:40.867Z,13.52
2018-08-28T02:50:40.902Z,13.49
2018-08-28T02:51:40.884Z,13.61
2018-08-28T02:52:40.820Z,13.61
2018-08-28T02:53:40.858Z,13.61
2018-08-28T02:54:40.803Z,13.57
2018-08-28T02:55:40.852Z,13.62
2018-08-28T02:56:40.782Z,13.57
2018-08-28T02:57:40.768Z,13.58
2018-08-28T02:58:40.764Z,13.58
2018-08-28T02:59:40.778Z,13.58
2018-08-28T03:00:40.828Z,13.58
2018-08-28T03:01:40.726Z,13.54
2018-08-28T03:02:40.719Z,13.62
2018-08-28T03:03:40.726Z,13.54
2018-08-28T03:04:40.686Z,13.54
2018-08-28T03:05:40.742Z,13.55
2018-08-28T03:06:40.654Z,13.57
2018-08-28T03:07:40.649Z,13.60
2018-08-28T03:08:40.633Z,13.67
2018-08-28T03:09:40.670Z,13.67
2018-08-28T03:10:40.677Z,13.64
2018-08-28T03:11:40.702Z,13.67
2018-08-28T03:12:40.647Z,13.67
2018-08-28T03:13:40.646Z,13.70
2018-08-28T03:14:40.615Z,13.70
2018-08-28T03:15:40.635Z,13.71
2018-08-28T03:16:40.599Z,13.67
2018-08-28T03:17:40.551Z,13.70
2018-08-28T03:18:40.565Z,13.67
2018-08-28T03:19:40.539Z,13.75
2018-08-28T03:20:40.517Z,13.70
2018-08-28T03:21:40.693Z,13.67
2018-08-28T03:22:40.504Z,13.70
2018-08-28T03:23:40.493Z,13.67
2018-08-28T03:24:40.476Z,13.70
2018-08-28T03:25:40.463Z,13.70
2018-08-28T03:26:40.515Z,13.68
2018-08-28T03:27:40.441Z,13.73
2018-08-28T03:28:40.417Z,13.71
2018-08-28T03:29:40.469Z,13.70
2018-08-28T03:30:40.399Z,13.68
2018-08-28T03:31:40.473Z,13.73
2018-08-28T03:32:40.377Z,13.76
2018-08-28T03:33:40.358Z,13.73
2018-08-28T03:34:40.378Z,13.75
2018-08-28T03:35:40.344Z,13.68
2018-08-28T03:36:40.380Z,13.71
2018-08-28T03:37:40.324Z,13.70
2018-08-28T03:38:40.303Z,13.68
2018-08-28T03:39:40.298Z,13.70
2018-08-28T03:40:40.280Z,13.70
2018-08-28T03:41:40.322Z,13.68
2018-08-28T03:42:40.302Z,13.71
2018-08-28T03:43:40.252Z,13.57
2018-08-28T03:44:40.307Z,13.58
2018-08-28T03:45:40.244Z,13.61
2018-08-28T03:46:40.222Z,13.52
2018-08-28T03:47:40.275Z,13.54
2018-08-28T03:48:40.186Z,13.50
2018-08-28T03:49:40.180Z,13.49
2018-08-28T03:50:40.171Z,13.46
2018-08-28T03:51:40.166Z,13.46
2018-08-28T03:52:40.217Z,13.46
2018-08-28T03:53:40.204Z,13.40
2018-08-28T03:54:40.181Z,13.40
2018-08-28T03:55:40.108Z,13.27
2018-08-28T03:56:40.196Z,13.42
2018-08-28T03:57:40.125Z,13.28
2018-08-28T03:58:40.098Z,13.30
2018-08-28T03:59:40.088Z,13.27
2018-08-28T04:00:40.062Z,13.24
2018-08-28T04:01:40.052Z,13.21
2018-08-28T04:02:40.090Z,13.16
2018-08-28T04:03:40.091Z,13.17
2018-08-28T04:04:40.018Z,13.27
2018-08-28T04:05:40.012Z,13.20
2018-08-28T04:06:39.986Z,13.13
2018-08-28T04:07:40.020Z,13.09
2018-08-28T04:08:40.022Z,13.16
2018-08-28T04:09:39.988Z,13.05
2018-08-28T04:10:39.955Z,13.02
2018-08-28T04:11:39.936Z,13.05
2018-08-28T04:12:39.928Z,13.06
2018-08-28T04:13:39.998Z,13.06
2018-08-28T04:14:39.892Z,13.05
2018-08-28T04:15:39.959Z,13.06
2018-08-28T04:16:39.894Z,13.02
2018-08-28T04:17:39.884Z,12.93
2018-08-28T04:18:39.979Z,13.03
2018-08-28T04:19:39.937Z,12.98
2018-08-28T04:20:39.838Z,12.99
2018-08-28T04:21:39.863Z,12.93
2018-08-28T04:22:39.902Z,12.94
2018-08-28T04:23:39.892Z,12.99
2018-08-28T04:24:39.793Z,12.91
2018-08-28T04:25:39.803Z,12.98
2018-08-28T04:26:39.879Z,13.03
2018-08-28T04:27:39.781Z,12.98
2018-08-28T04:28:39.811Z,13.01
2018-08-28T04:29:39.837Z,12.99
2018-08-28T04:30:39.887Z,12.93
2018-08-28T04:31:39.736Z,13.01
2018-08-28T04:32:39.705Z,12.99
2018-08-28T04:33:39.727Z,12.93
2018-08-28T04:34:39.770Z,12.93
2018-08-28T04:35:39.721Z,12.86
2018-08-28T04:36:39.668Z,12.95
2018-08-28T04:37:39.655Z,12.88
2018-08-28T04:38:39.645Z,12.86
2018-08-28T04:39:39.741Z,12.90
2018-08-28T04:40:39.644Z,12.83
2018-08-28T04:41:39.637Z,12.84
2018-08-28T04:42:39.601Z,12.84
2018-08-28T04:43:39.601Z,12.88
2018-08-28T04:44:39.665Z,12.81
2018-08-28T04:45:39.577Z,12.78
2018-08-28T04:46:39.574Z,12.87
2018-08-28T04:47:39.525Z,12.86
2018-08-28T04:48:39.588Z,12.86
2018-08-28T04:49:39.561Z,12.80
2018-08-28T04:50:39.579Z,12.91
2018-08-28T04:51:39.525Z,12.86
2018-08-28T04:52:39.541Z,12.91
2018-08-28T04:53:39.655Z,12.87
2018-08-28T04:54:39.624Z,12.88
2018-08-28T04:55:39.815Z,12.83
2018-08-28T04:56:39.561Z,12.87
2018-08-28T04:57:39.429Z,12.86
2018-08-28T04:58:39.475Z,12.83
2018-08-28T04:59:39.437Z,12.86
2018-08-28T05:00:39.863Z,12.87
2018-08-28T05:01:39.421Z,12.84
2018-08-28T05:02:39.373Z,12.86
2018-08-28T05:03:39.392Z,12.86
2018-08-28T05:04:39.329Z,12.86
2018-08-28T05:05:39.432Z,12.81
2018-08-28T05:06:39.351Z,12.87
2018-08-28T05:07:39.378Z,12.90
2018-08-28T05:08:39.389Z,12.83
2018-08-28T05:09:39.335Z,12.84
2018-08-28T05:10:39.598Z,12.86
2018-08-28T05:11:40.564Z,12.98
2018-08-28T05:12:39.487Z,12.99
2018-08-28T05:13:39.238Z,12.87
2018-08-28T05:14:40.585Z,12.98
2018-08-28T05:15:39.281Z,12.91
2018-08-28T05:16:39.923Z,12.95
2018-08-28T05:17:39.227Z,13.02
2018-08-28T05:18:39.287Z,13.02
2018-08-28T05:19:39.236Z,13.05
2018-08-28T05:20:39.224Z,13.03
2018-08-28T05:21:39.302Z,13.08
2018-08-28T05:22:39.258Z,13.09
2018-08-28T05:23:39.149Z,13.12
2018-08-28T05:24:39.469Z,13.11
2018-08-28T05:25:39.262Z,13.06
2018-08-28T05:26:39.223Z,13.19
2018-08-28T05:27:39.118Z,13.20
2018-08-28T05:28:39.092Z,13.23
2018-08-28T05:29:39.246Z,13.19
2018-08-28T05:30:39.118Z,13.11
2018-08-28T05:31:39.245Z,13.23
2018-08-28T05:32:39.120Z,13.17
2018-08-28T05:33:39.026Z,13.24
2018-08-28T05:34:39.008Z,13.24
2018-08-28T05:35:38.986Z,13.33
2018-08-28T05:36:38.973Z,13.40
2018-08-28T05:37:39.001Z,13.26
2018-08-28T05:38:38.952Z,13.30
2018-08-28T05:39:38.943Z,13.39
2018-08-28T05:40:38.931Z,13.40
2018-08-28T05:41:38.951Z,13.47
2018-08-28T05:42:38.947Z,13.46
2018-08-28T05:43:38.913Z,13.47
2018-08-28T05:44:38.916Z,13.52
2018-08-28T05:45:38.875Z,13.47
2018-08-28T05:46:38.857Z,13.50
2018-08-28T05:47:38.895Z,13.60
2018-08-28T05:48:38.837Z,13.61
2018-08-28T05:49:38.842Z,13.71
2018-08-28T05:50:38.819Z,13.70
2018-08-28T05:51:38.815Z,13.70
2018-08-28T05:52:38.853Z,13.71
2018-08-28T05:53:38.796Z,13.83
2018-08-28T05:54:38.789Z,13.83
2018-08-28T05:55:38.800Z,13.83
2018-08-28T05:56:38.761Z,13.83
2018-08-28T05:57:38.785Z,13.86
2018-08-28T05:58:38.773Z,13.80
2018-08-28T05:59:38.727Z,13.95
2018-08-28T06:00:38.739Z,13.98
2018-08-28T06:01:38.706Z,14.00
2018-08-28T06:02:38.693Z,14.05
2018-08-28T06:03:38.712Z,14.08
2018-08-28T06:04:38.667Z,14.11
2018-08-28T06:05:38.660Z,14.15
2018-08-28T06:06:38.646Z,14.22
2018-08-28T06:07:38.627Z,14.37
2018-08-28T06:08:38.717Z,14.62
2018-08-28T06:09:38.615Z,14.85
2018-08-28T06:10:38.597Z,14.93
2018-08-28T06:11:38.589Z,15.18
2018-08-28T06:12:38.576Z,15.26
2018-08-28T06:13:38.639Z,15.48
2018-08-28T06:14:38.609Z,15.62
2018-08-28T06:15:38.539Z,15.57
2018-08-28T06:16:38.535Z,15.62
2018-08-28T06:17:38.562Z,15.66
2018-08-28T06:18:38.543Z,15.75
2018-08-28T06:19:38.539Z,15.67
2018-08-28T06:20:38.486Z,15.69
2018-08-28T06:21:38.481Z,15.66
2018-08-28T06:22:38.471Z,15.80
2018-08-28T06:23:38.453Z,15.94
2018-08-28T06:24:38.589Z,16.02
2018-08-28T06:25:38.427Z,16.26
2018-08-28T06:26:38.551Z,16.34
2018-08-28T06:27:38.399Z,16.43
2018-08-28T06:28:38.392Z,16.36
2018-08-28T06:29:38.435Z,16.49
2018-08-28T06:30:38.364Z,16.47
2018-08-28T06:31:38.357Z,16.59
2018-08-28T06:32:38.351Z,16.58
2018-08-28T06:33:38.335Z,16.65
2018-08-28T06:34:38.364Z,16.79
2018-08-28T06:35:38.309Z,16.76
2018-08-28T06:36:38.303Z,16.92
2018-08-28T06:37:38.287Z,17.04
2018-08-28T06:38:38.284Z,17.12
2018-08-28T06:39:38.301Z,17.19
2018-08-28T06:40:38.289Z,17.24
2018-08-28T06:41:38.247Z,17.31
2018-08-28T06:42:38.231Z,17.41
2018-08-28T06:43:38.221Z,17.52
2018-08-28T06:44:38.215Z,17.31
2018-08-28T06:45:38.260Z,17.39
2018-08-28T06:46:38.225Z,17.52
2018-08-28T06:47:38.177Z,17.52
2018-08-28T06:48:38.167Z,17.52
2018-08-28T06:49:38.237Z,17.60
2018-08-28T06:50:38.196Z,17.56
2018-08-28T06:51:38.145Z,17.65
2018-08-28T06:52:38.127Z,17.78
2018-08-28T06:53:38.105Z,17.78
2018-08-28T06:54:38.110Z,17.75
2018-08-28T06:55:38.146Z,17.76
2018-08-28T06:56:38.085Z,17.91
2018-08-28T06:57:38.077Z,17.95
2018-08-28T06:58:38.058Z,18.05
2018-08-28T06:59:38.099Z,18.19
2018-08-28T07:00:38.046Z,18.31
2018-08-28T07:01:38.024Z,18.24
2018-08-28T07:02:38.021Z,18.41
2018-08-28T07:03:38.035Z,18.37
2018-08-28T07:04:38.030Z,18.31
2018-08-28T07:05:37.985Z,18.37
2018-08-28T07:06:37.970Z,18.45
2018-08-28T07:07:37.959Z,18.55
2018-08-28T07:08:37.983Z,18.60
2018-08-28T07:09:37.947Z,18.57
2018-08-28T07:10:37.921Z,18.61
2018-08-28T07:11:37.922Z,18.70
2018-08-28T07:12:37.951Z,19.04
2018-08-28T07:13:37.894Z,19.11
2018-08-28T07:14:37.879Z,19.24
2018-08-28T07:15:37.871Z,19.39
2018-08-28T07:16:37.855Z,19.37
2018-08-28T07:17:37.890Z,19.45
2018-08-28T07:18:37.841Z,19.34
2018-08-28T07:19:37.827Z,19.27
2018-08-28T07:20:37.815Z,19.17
2018-08-28T07:21:37.800Z,19.23
2018-08-28T07:22:37.837Z,19.20
2018-08-28T07:23:37.780Z,19.23
2018-08-28T07:24:37.773Z,19.15
2018-08-28T07:25:37.797Z,18.89
2018-08-28T07:26:37.749Z,18.67
2018-08-28T07:27:37.773Z,18.51
2018-08-28T07:28:37.715Z,18.19
2018-08-28T07:29:37.708Z,17.95
2018-08-28T07:30:37.692Z,17.97
2018-08-28T07:31:37.734Z,17.93
2018-08-28T07:32:37.727Z,18.02
2018-08-28T07:33:37.656Z,18.11
2018-08-28T07:34:37.652Z,18.03
2018-08-28T07:35:37.643Z,18.06
2018-08-28T07:36:37.633Z,18.18
2018-08-28T07:37:37.669Z,18.31
2018-08-28T07:38:37.623Z,18.39
2018-08-28T07:39:37.595Z,18.46
2018-08-28T07:40:37.581Z,18.43
2018-08-28T07:41:37.575Z,18.58
2018-08-28T07:42:37.605Z,18.74
2018-08-28T07:43:37.547Z,18.73
2018-08-28T07:44:37.539Z,18.60
2018-08-28T07:45:37.527Z,18.52
2018-08-28T07:46:37.519Z,18.55
2018-08-28T07:47:37.542Z,18.58
2018-08-28T07:48:37.529Z,18.58
2018-08-28T07:49:37.495Z,18.51
2018-08-28T07:50:37.467Z,18.61
2018-08-28T07:51:37.459Z,18.76
2018-08-28T07:52:37.447Z,18.71
2018-08-28T07:53:37.481Z,18.88
2018-08-28T07:54:37.444Z,18.96
2018-08-28T07:55:37.412Z,19.16
2018-08-28T07:56:37.407Z,19.08
2018-08-28T07:57:37.391Z,19.11
2018-08-28T07:58:37.433Z,19.19
2018-08-28T07:59:37.376Z,18.92
2018-08-28T08:00:37.366Z,18.89
2018-08-28T08:01:37.357Z,19.12
2018-08-28T08:02:37.348Z,19.12
2018-08-28T08:03:37.378Z,19.26
2018-08-28T08:04:37.340Z,19.35
2018-08-28T08:05:37.310Z,19.48
2018-08-28T08:06:37.310Z,19.53
2018-08-28T08:07:37.759Z,19.53
2018-08-28T08:08:37.274Z,19.75
2018-08-28T08:09:37.268Z,19.66
2018-08-28T08:10:37.341Z,19.71
2018-08-28T08:11:37.248Z,19.66
2018-08-28T08:12:37.266Z,19.63
2018-08-28T08:13:37.221Z,19.64
2018-08-28T08:14:37.247Z,19.67
2018-08-28T08:15:37.211Z,19.67
2018-08-28T08:16:37.192Z,19.57
2018-08-28T08:17:37.175Z,19.53
2018-08-28T08:18:37.167Z,19.59
2018-08-28T08:19:37.187Z,19.74
2018-08-28T08:20:37.146Z,19.79
2018-08-28T08:21:37.165Z,19.89
2018-08-28T08:22:37.141Z,19.87
2018-08-28T08:23:37.118Z,19.84
2018-08-28T08:24:37.151Z,19.82
2018-08-28T08:25:37.121Z,19.99
2018-08-28T08:26:37.095Z,20.17
2018-08-28T08:27:37.065Z,20.33
2018-08-28T08:28:37.073Z,20.30
2018-08-28T08:29:37.080Z,20.32
2018-08-28T08:30:37.040Z,20.56
2018-08-28T08:31:37.049Z,21.15
2018-08-28T08:32:37.009Z,21.53
2018-08-28T08:33:36.996Z,21.53
2018-08-28T08:34:36.983Z,21.59
2018-08-28T08:35:36.975Z,21.47
2018-08-28T08:36:37.009Z,21.47
2018-08-28T08:37:36.999Z,21.32
2018-08-28T08:38:36.941Z,21.13
2018-08-28T08:39:36.922Z,20.85
2018-08-28T08:40:36.910Z,20.93
2018-08-28T08:41:36.898Z,20.85
2018-08-28T08:42:36.926Z,21.01
2018-08-28T08:43:36.916Z,21.19
2018-08-28T08:44:36.869Z,21.25
2018-08-28T08:45:36.891Z,21.41
2018-08-28T08:46:36.842Z,21.45
2018-08-28T08:47:36.831Z,21.53
2018-08-28T08:48:36.859Z,21.60
2018-08-28T08:49:36.806Z,21.88
2018-08-28T08:50:36.809Z,21.62
2018-08-28T08:51:36.790Z,21.68
2018-08-28T08:52:36.778Z,21.62
2018-08-28T08:53:36.811Z,21.74
2018-08-28T08:54:36.788Z,21.89
2018-08-28T08:55:36.746Z,21.47
2018-08-28T08:56:36.739Z,21.40
2018-08-28T08:57:36.733Z,21.11
2018-08-28T08:58:36.710Z,20.95
2018-08-28T08:59:36.739Z,21.03
2018-08-28T09:00:36.690Z,20.80
2018-08-28T09:01:36.681Z,20.96
2018-08-28T09:02:36.670Z,20.89
2018-08-28T09:03:36.657Z,21.08
2018-08-28T09:04:36.703Z,21.30
2018-08-28T09:05:36.645Z,21.43
2018-08-28T09:06:36.627Z,21.44
2018-08-28T09:07:36.623Z,21.37
2018-08-28T09:08:36.608Z,21.65
2018-08-28T09:09:36.643Z,21.81
2018-08-28T09:10:36.588Z,22.08
2018-08-28T09:11:36.571Z,22.28
2018-08-28T09:12:36.569Z,22.47
2018-08-28T09:13:36.553Z,22.18
2018-08-28T09:14:36.581Z,22.78
2018-08-28T09:15:36.550Z,23.33
2018-08-28T09:16:36.550Z,23.56
2018-08-28T09:17:36.504Z,24.14
2018-08-28T09:18:36.493Z,25.01
2018-08-28T09:19:36.483Z,25.22
2018-08-28T09:20:36.520Z,25.43
2018-08-28T09:21:36.459Z,25.85
2018-08-28T09:22:36.455Z,24.99
2018-08-28T09:23:36.437Z,24.85
2018-08-28T09:24:36.425Z,25.61
2018-08-28T09:25:36.464Z,25.73
2018-08-28T09:26:36.415Z,25.51
2018-08-28T09:27:36.413Z,25.71
2018-08-28T09:28:36.391Z,25.93
2018-08-28T09:29:36.376Z,25.77
2018-08-28T09:30:36.401Z,24.99
2018-08-28T09:31:36.383Z,24.11
2018-08-28T09:32:36.346Z,23.63
2018-08-28T09:33:36.377Z,22.98
2018-08-28T09:34:36.325Z,23.92
2018-08-28T09:35:36.298Z,23.95
2018-08-28T09:36:36.323Z,24.07
2018-08-28T09:37:36.283Z,24.78
2018-08-28T09:38:36.292Z,25.68
2018-08-28T09:39:36.263Z,25.37
2018-08-28T09:40:36.247Z,25.71
2018-08-28T09:41:36.271Z,25.95
2018-08-28T09:42:36.231Z,26.76
2018-08-28T09:43:36.311Z,27.08
2018-08-28T09:44:36.234Z,26.97
2018-08-28T09:45:36.198Z,26.16
2018-08-28T09:46:36.217Z,25.00
2018-08-28T09:47:36.171Z,25.40
2018-08-28T09:48:36.155Z,25.77
2018-08-28T09:49:36.197Z,26.63
2018-08-28T09:50:36.265Z,26.93
2018-08-28T09:51:36.154Z,27.15
2018-08-28T09:52:36.123Z,27.53
2018-08-28T09:53:36.153Z,27.72
2018-08-28T09:54:36.144Z,27.88
2018-08-28T09:55:36.088Z,28.10
2018-08-28T09:56:36.127Z,28.10
2018-08-28T09:57:36.072Z,26.60
2018-08-28T09:58:36.094Z,27.22
2018-08-28T09:59:36.053Z,27.45
2018-08-28T10:00:36.037Z,27.63
2018-08-28T10:01:36.037Z,27.90
2018-08-28T10:02:36.018Z,28.49
2018-08-28T10:03:36.052Z,28.96
2018-08-28T10:04:36.013Z,28.64
2018-08-28T10:05:36.013Z,28.25
2018-08-28T10:06:35.980Z,27.55
2018-08-28T10:07:35.953Z,27.08
2018-08-28T10:08:35.989Z,27.34
2018-08-28T10:09:35.935Z,28.30
2018-08-28T10:10:35.922Z,28.97
2018-08-28T10:11:35.911Z,29.61
2018-08-28T10:12:35.901Z,29.84
2018-08-28T10:13:35.929Z,29.69
2018-08-28T10:14:35.921Z,29.79
2018-08-28T10:15:35.864Z,30.13
2018-08-28T10:16:35.858Z,30.18
2018-08-28T10:17:35.851Z,28.40
2018-08-28T10:18:35.845Z,27.91
2018-08-28T10:19:35.885Z,28.43
2018-08-28T10:20:35.815Z,28.22
2018-08-28T10:21:35.808Z,28.78
2018-08-28T10:22:35.800Z,28.16
2018-08-28T10:23:35.790Z,28.74
2018-08-28T10:24:35.824Z,29.06
2018-08-28T10:25:35.812Z,28.43
2018-08-28T10:26:35.762Z,28.34
2018-08-28T10:27:35.741Z,28.59
2018-08-28T10:28:35.735Z,29.02
2018-08-28T10:29:35.729Z,29.28
2018-08-28T10:30:35.748Z,29.42
2018-08-28T10:31:35.705Z,29.21
2018-08-28T10:32:35.688Z,28.40
2018-08-28T10:33:35.714Z,29.05
2018-08-28T10:34:35.677Z,29.86
2018-08-28T10:35:35.659Z,30.49
2018-08-28T10:36:35.651Z,30.69
2018-08-28T10:37:35.641Z,30.61
2018-08-28T10:38:35.684Z,31.05
2018-08-28T10:39:35.628Z,31.28
2018-08-28T10:40:35.621Z,31.23
2018-08-28T10:41:35.618Z,31.47
2018-08-28T10:42:35.630Z,31.85
2018-08-28T10:43:35.628Z,31.86
2018-08-28T10:44:35.592Z,31.72
2018-08-28T10:45:35.564Z,31.41
2018-08-28T10:46:35.601Z,31.70
2018-08-28T10:47:35.547Z,32.02
2018-08-28T10:48:35.570Z,31.70
2018-08-28T10:49:35.527Z,31.51
2018-08-28T10:50:35.521Z,31.51
2018-08-28T10:51:35.507Z,31.48
2018-08-28T10:52:35.490Z,31.30
2018-08-28T10:53:35.522Z,31.32
2018-08-28T10:54:35.479Z,31.07
2018-08-28T10:55:35.465Z,31.30
2018-08-28T10:56:35.455Z,30.58
2018-08-28T10:57:35.434Z,31.08
2018-08-28T10:58:35.468Z,31.25
2018-08-28T10:59:35.418Z,31.54
2018-08-28T11:00:35.448Z,31.73
2018-08-28T11:01:35.404Z,31.48
2018-08-28T11:02:35.390Z,31.35
2018-08-28T11:03:35.377Z,31.48
2018-08-28T11:04:35.457Z,31.22
2018-08-28T11:05:35.396Z,31.67
2018-08-28T11:06:35.347Z,31.30
2018-08-28T11:07:35.343Z,31.47
2018-08-28T11:08:35.392Z,31.66
2018-08-28T11:09:35.317Z,29.65
2018-08-28T11:10:35.309Z,29.99
2018-08-28T11:11:35.293Z,30.89
2018-08-28T11:12:35.279Z,31.39
2018-08-28T11:13:35.300Z,31.47
2018-08-28T11:14:35.259Z,31.37
2018-08-28T11:15:35.252Z,31.86
2018-08-28T11:16:35.231Z,31.73
2018-08-28T11:17:35.229Z,32.07
2018-08-28T11:18:35.256Z,30.62
2018-08-28T11:19:35.246Z,29.24
2018-08-28T11:20:35.197Z,29.79
2018-08-28T11:21:35.199Z,30.61
2018-08-28T11:22:35.185Z,31.25
2018-08-28T11:23:35.163Z,31.18
2018-08-28T11:24:35.193Z,30.52
2018-08-28T11:25:35.137Z,30.85
2018-08-28T11:26:35.135Z,30.86
2018-08-28T11:27:35.135Z,30.98
2018-08-28T11:28:35.104Z,31.35
2018-08-28T11:29:35.136Z,31.44
2018-08-28T11:30:35.137Z,31.90
2018-08-28T11:31:35.081Z,31.77
2018-08-28T11:32:35.089Z,32.30
2018-08-28T11:33:35.065Z,32.78
2018-08-28T11:34:35.062Z,33.04
2018-08-28T11:35:35.098Z,33.20
2018-08-28T11:36:35.041Z,33.15
2018-08-28T11:37:35.019Z,32.82
2018-08-28T11:38:35.135Z,32.83
2018-08-28T11:39:35.004Z,32.78
2018-08-28T11:40:35.021Z,33.19
2018-08-28T11:41:34.979Z,33.19
2018-08-28T11:42:34.963Z,33.58
2018-08-28T11:43:34.974Z,33.51
2018-08-28T11:44:34.960Z,33.45
2018-08-28T11:45:34.981Z,33.61
2018-08-28T11:46:34.939Z,32.17
2018-08-28T11:47:34.924Z,30.88
2018-08-28T11:48:34.918Z,30.73
2018-08-28T11:49:34.905Z,30.20
2018-08-28T11:50:34.940Z,28.59
2018-08-28T11:51:34.888Z,28.49
2018-08-28T11:52:34.956Z,28.67
2018-08-28T11:53:34.858Z,27.94
2018-08-28T11:54:34.853Z,27.35
2018-08-28T11:55:34.886Z,27.01
2018-08-28T11:56:34.832Z,26.85
2018-08-28T11:57:34.816Z,26.71
2018-08-28T11:58:34.820Z,27.75
2018-08-28T11:59:34.793Z,27.55
2018-08-28T12:00:34.823Z,27.72
2018-08-28T12:01:34.768Z,27.66
2018-08-28T12:02:34.757Z,27.43
2018-08-28T12:03:34.749Z,27.05
2018-08-28T12:04:34.749Z,26.85
2018-08-28T12:05:34.765Z,26.71
2018-08-28T12:06:34.790Z,26.53
2018-08-28T12:07:34.709Z,26.61
2018-08-28T12:08:34.690Z,27.43
2018-08-28T12:09:34.689Z,27.10
2018-08-28T12:10:34.676Z,26.97
2018-08-28T12:11:34.705Z,26.63
2018-08-28T12:12:34.651Z,26.45
2018-08-28T12:13:34.643Z,26.19
2018-08-28T12:14:34.641Z,25.83
2018-08-28T12:15:34.630Z,25.55
2018-08-28T12:16:34.666Z,25.36
2018-08-28T12:17:34.640Z,25.14
2018-08-28T12:18:34.602Z,24.84
2018-08-28T12:19:34.615Z,24.61
2018-08-28T12:20:34.668Z,24.46
2018-08-28T12:21:34.566Z,24.41
2018-08-28T12:22:34.588Z,24.50
2018-08-28T12:23:34.546Z,24.48
2018-08-28T12:24:34.532Z,24.28
2018-08-28T12:25:34.517Z,24.25
2018-08-28T12:26:34.516Z,24.22
2018-08-28T12:27:34.537Z,23.89
2018-08-28T12:28:34.492Z,23.92
2018-08-28T12:29:34.512Z,23.82
2018-08-28T12:30:34.472Z,23.74
2018-08-28T12:31:34.452Z,23.63
2018-08-28T12:32:34.484Z,23.49
2018-08-28T12:33:34.472Z,23.49
2018-08-28T12:34:34.419Z,23.39
2018-08-28T12:35:34.419Z,23.36
2018-08-28T12:36:34.434Z,23.25
2018-08-28T12:37:34.424Z,23.18
2018-08-28T12:38:34.425Z,23.17
2018-08-28T12:39:34.386Z,22.99
2018-08-28T12:40:34.355Z,22.86
2018-08-28T12:41:34.341Z,22.78
2018-08-28T12:42:34.387Z,22.71
2018-08-28T12:43:34.326Z,22.58
2018-08-28T12:44:34.312Z,22.53
2018-08-28T12:45:34.305Z,22.59
2018-08-28T12:46:34.289Z,22.56
2018-08-28T12:47:34.334Z,22.37
2018-08-28T12:48:34.260Z,22.25
2018-08-28T12:49:34.292Z,22.26
2018-08-28T12:50:34.240Z,22.23
2018-08-28T12:51:34.225Z,22.15
2018-08-28T12:52:34.208Z,22.15